sensor_id;sensor_type;location;lat;lon;timestamp;temperature;humidity
19437;DHT22;9854;50.968;4.168;2024-03-23T00:53:58;9.30;99.90
19437;DHT22;9854;50.968;4.168;2024-03-23T00:56:24;9.30;99.90
19437;DHT22;9854;50.968;4.168;2024-03-23T00:58:52;9.30;99.90
19437;DHT22;9854;50.968;4.168;2024-03-23T01:01:18;9.40;99.90
19437;DHT22;9854;50.968;4.168;2024-03-23T01:03:46;9.40;99.90
19437;DHT22;9854;50.968;4.168;2024-03-23T01:06:11;9.30;99.90
19437;DHT22;9854;50.968;4.168;2024-03-23T01:08:37;9.20;99.90
19437;DHT22;9854;50.968;4.168;2024-03-23T01:11:03;9.10;99.90
19437;DHT22;9854;50.968;4.168;2024-03-23T01:13:29;8.80;99.90
19437;DHT22;9854;50.968;4.168;2024-03-23T01:15:56;8.70;99.90
19437;DHT22;9854;50.968;4.168;2024-03-23T01:18:22;8.50;99.90
19437;DHT22;9854;50.968;4.168;2024-03-23T01:20:51;8.50;99.90
19437;DHT22;9854;50.968;4.168;2024-03-23T01:23:19;8.50;99.90
19437;DHT22;9854;50.968;4.168;2024-03-23T01:25:54;8.40;99.90
19437;DHT22;9854;50.968;4.168;2024-03-23T01:28:22;8.60;99.90
19437;DHT22;9854;50.968;4.168;2024-03-23T01:30:51;8.80;99.90
19437;DHT22;9854;50.968;4.168;2024-03-23T01:33:17;8.80;99.90
19437;DHT22;9854;50.968;4.168;2024-03-23T01:35:45;8.80;99.90
19437;DHT22;9854;50.968;4.168;2024-03-23T01:38:10;8.80;99.90
19437;DHT22;9854;50.968;4.168;2024-03-23T01:40:36;8.80;99.90
19437;DHT22;9854;50.968;4.168;2024-03-23T01:43:06;8.80;99.90
19437;DHT22;9854;50.968;4.168;2024-03-23T01:45:33;8.80;99.90
19437;DHT22;9854;50.968;4.168;2024-03-23T01:47:59;8.70;99.90
19437;DHT22;9854;50.968;4.168;2024-03-23T01:50:28;8.50;99.90
19437;DHT22;9854;50.968;4.168;2024-03-23T01:52:58;8.50;99.90
19437;DHT22;9854;50.968;4.168;2024-03-23T01:55:24;8.60;99.90
19437;DHT22;9854;50.968;4.168;2024-03-23T01:57:50;8.50;99.90
19437;DHT22;9854;50.968;4.168;2024-03-23T02:00:16;8.40;99.90
19437;DHT22;9854;50.968;4.168;2024-03-23T02:02:45;8.40;99.90
19437;DHT22;9854;50.968;4.168;2024-03-23T02:05:14;8.40;99.90
19437;DHT22;9854;50.968;4.168;2024-03-23T02:07:44;8.30;99.90
19437;DHT22;9854;50.968;4.168;2024-03-23T02:10:10;8.20;99.90
19437;DHT22;9854;50.968;4.168;2024-03-23T02:12:38;8.20;99.90
19437;DHT22;9854;50.968;4.168;2024-03-23T02:15:06;8.20;99.90
19437;DHT22;9854;50.968;4.168;2024-03-23T02:17:35;8.10;99.90
19437;DHT22;9854;50.968;4.168;2024-03-23T02:20:02;8.10;99.90
19437;DHT22;9854;50.968;4.168;2024-03-23T02:22:38;8.10;99.90
19437;DHT22;9854;50.968;4.168;2024-03-23T02:25:07;8.10;99.90
19437;DHT22;9854;50.968;4.168;2024-03-23T02:27:33;8.10;99.90
19437;DHT22;9854;50.968;4.168;2024-03-23T02:30:00;8.20;99.90
19437;DHT22;9854;50.968;4.168;2024-03-23T02:32:25;8.20;99.90
19437;DHT22;9854;50.968;4.168;2024-03-23T02:34:51;8.20;99.90
19437;DHT22;9854;50.968;4.168;2024-03-23T02:37:17;8.20;99.90
19437;DHT22;9854;50.968;4.168;2024-03-23T02:39:44;8.10;99.90
19437;DHT22;9854;50.968;4.168;2024-03-23T02:42:10;8.10;99.90
19437;DHT22;9854;50.968;4.168;2024-03-23T02:44:36;8.10;99.90
19437;DHT22;9854;50.968;4.168;2024-03-23T02:47:03;8.20;99.90
19437;DHT22;9854;50.968;4.168;2024-03-23T02:49:29;8.20;99.90
19437;DHT22;9854;50.968;4.168;2024-03-23T02:51:55;8.10;99.90
19437;DHT22;9854;50.968;4.168;2024-03-23T02:54:23;8.10;99.90
19437;DHT22;9854;50.968;4.168;2024-03-23T02:56:48;8.10;99.90
19437;DHT22;9854;50.968;4.168;2024-03-23T02:59:14;8.10;99.90
19437;DHT22;9854;50.968;4.168;2024-03-23T03:01:39;8.10;99.90
19437;DHT22;9854;50.968;4.168;2024-03-23T03:04:05;8.00;99.90
19437;DHT22;9854;50.968;4.168;2024-03-23T03:06:33;8.00;99.90
19437;DHT22;9854;50.968;4.168;2024-03-23T03:08:59;8.00;99.90
19437;DHT22;9854;50.968;4.168;2024-03-23T03:11:24;8.00;99.90
19437;DHT22;9854;50.968;4.168;2024-03-23T03:13:50;8.10;99.90
19437;DHT22;9854;50.968;4.168;2024-03-23T03:16:16;8.20;99.90
19437;DHT22;9854;50.968;4.168;2024-03-23T03:18:41;8.20;99.90
19437;DHT22;9854;50.968;4.168;2024-03-23T03:21:09;8.20;99.90
19437;DHT22;9854;50.968;4.168;2024-03-23T03:23:38;8.20;99.90
19437;DHT22;9854;50.968;4.168;2024-03-23T03:26:04;8.20;99.90
19437;DHT22;9854;50.968;4.168;2024-03-23T03:28:34;8.20;99.90
19437;DHT22;9854;50.968;4.168;2024-03-23T03:31:02;8.20;99.90
19437;DHT22;9854;50.968;4.168;2024-03-23T03:33:30;8.30;99.90
19437;DHT22;9854;50.968;4.168;2024-03-23T03:35:56;8.30;99.90
19437;DHT22;9854;50.968;4.168;2024-03-23T03:38:26;8.30;99.90
19437;DHT22;9854;50.968;4.168;2024-03-23T03:40:52;8.30;99.90
19437;DHT22;9854;50.968;4.168;2024-03-23T03:43:18;8.30;99.90
19437;DHT22;9854;50.968;4.168;2024-03-23T03:45:55;8.20;99.90
19437;DHT22;9854;50.968;4.168;2024-03-23T03:48:21;8.20;99.90
19437;DHT22;9854;50.968;4.168;2024-03-23T03:50:46;8.20;99.90
19437;DHT22;9854;50.968;4.168;2024-03-23T03:53:15;8.10;99.90
19437;DHT22;9854;50.968;4.168;2024-03-23T03:55:41;8.10;99.90
19437;DHT22;9854;50.968;4.168;2024-03-23T03:58:09;8.10;99.90
19437;DHT22;9854;50.968;4.168;2024-03-23T04:00:34;8.10;99.90
19437;DHT22;9854;50.968;4.168;2024-03-23T04:03:01;8.10;99.90
19437;DHT22;9854;50.968;4.168;2024-03-23T04:05:27;8.10;99.90
19437;DHT22;9854;50.968;4.168;2024-03-23T04:07:53;8.10;99.90
19437;DHT22;9854;50.968;4.168;2024-03-23T04:10:19;8.20;99.90
19437;DHT22;9854;50.968;4.168;2024-03-23T04:12:45;8.40;99.90
19437;DHT22;9854;50.968;4.168;2024-03-23T04:15:11;8.30;99.90
19437;DHT22;9854;50.968;4.168;2024-03-23T04:17:37;8.20;99.90
19437;DHT22;9854;50.968;4.168;2024-03-23T04:20:03;8.00;99.90
19437;DHT22;9854;50.968;4.168;2024-03-23T04:22:33;7.80;99.90
19437;DHT22;9854;50.968;4.168;2024-03-23T04:24:58;7.80;99.90
19437;DHT22;9854;50.968;4.168;2024-03-23T04:27:24;7.80;99.90
19437;DHT22;9854;50.968;4.168;2024-03-23T04:29:52;7.80;99.90
19437;DHT22;9854;50.968;4.168;2024-03-23T04:32:25;7.70;99.90
19437;DHT22;9854;50.968;4.168;2024-03-23T04:34:52;7.70;99.90
19437;DHT22;9854;50.968;4.168;2024-03-23T04:37:17;7.80;99.90
19437;DHT22;9854;50.968;4.168;2024-03-23T04:39:43;7.80;99.90
19437;DHT22;9854;50.968;4.168;2024-03-23T04:42:09;7.70;99.90
19437;DHT22;9854;50.968;4.168;2024-03-23T04:44:34;7.70;99.90
19437;DHT22;9854;50.968;4.168;2024-03-23T04:47:01;7.50;99.90
19437;DHT22;9854;50.968;4.168;2024-03-23T04:49:28;7.40;99.90
19437;DHT22;9854;50.968;4.168;2024-03-23T04:51:54;7.40;99.90
19437;DHT22;9854;50.968;4.168;2024-03-23T04:54:22;7.40;99.90
19437;DHT22;9854;50.968;4.168;2024-03-23T04:56:50;7.40;99.90
19437;DHT22;9854;50.968;4.168;2024-03-23T04:59:16;7.40;99.90
19437;DHT22;9854;50.968;4.168;2024-03-23T05:01:43;7.40;99.90
19437;DHT22;9854;50.968;4.168;2024-03-23T05:04:09;7.50;99.90
19437;DHT22;9854;50.968;4.168;2024-03-23T05:06:35;7.40;99.90
19437;DHT22;9854;50.968;4.168;2024-03-23T05:09:01;7.30;99.90
19437;DHT22;9854;50.968;4.168;2024-03-23T05:11:36;7.40;99.90
19437;DHT22;9854;50.968;4.168;2024-03-23T05:14:01;7.40;99.90
19437;DHT22;9854;50.968;4.168;2024-03-23T05:16:28;7.50;99.90
19437;DHT22;9854;50.968;4.168;2024-03-23T05:18:54;7.70;99.90
19437;DHT22;9854;50.968;4.168;2024-03-23T05:21:19;7.70;99.90
19437;DHT22;9854;50.968;4.168;2024-03-23T05:23:48;7.60;99.90
19437;DHT22;9854;50.968;4.168;2024-03-23T05:26:16;7.70;99.90
19437;DHT22;9854;50.968;4.168;2024-03-23T05:28:41;7.70;99.90
19437;DHT22;9854;50.968;4.168;2024-03-23T05:31:09;7.70;99.90
19437;DHT22;9854;50.968;4.168;2024-03-23T05:33:36;7.70;99.90
19437;DHT22;9854;50.968;4.168;2024-03-23T05:36:04;7.60;99.90
19437;DHT22;9854;50.968;4.168;2024-03-23T05:38:30;7.60;99.90
19437;DHT22;9854;50.968;4.168;2024-03-23T05:40:59;7.70;99.90
19437;DHT22;9854;50.968;4.168;2024-03-23T05:43:26;7.70;99.90
19437;DHT22;9854;50.968;4.168;2024-03-23T05:45:57;7.70;99.90
19437;DHT22;9854;50.968;4.168;2024-03-23T05:48:23;7.70;99.90
19437;DHT22;9854;50.968;4.168;2024-03-23T05:50:49;7.70;99.90
19437;DHT22;9854;50.968;4.168;2024-03-23T05:53:18;7.80;99.90
19437;DHT22;9854;50.968;4.168;2024-03-23T05:55:46;7.90;99.90
19437;DHT22;9854;50.968;4.168;2024-03-23T05:58:14;7.80;99.90
19437;DHT22;9854;50.968;4.168;2024-03-23T06:00:40;7.80;99.90
19437;DHT22;9854;50.968;4.168;2024-03-23T06:03:05;7.90;99.90
19437;DHT22;9854;50.968;4.168;2024-03-23T06:05:31;7.90;99.90
19437;DHT22;9854;50.968;4.168;2024-03-23T06:07:57;7.80;99.90
19437;DHT22;9854;50.968;4.168;2024-03-23T06:10:25;7.70;99.90
19437;DHT22;9854;50.968;4.168;2024-03-23T06:12:51;7.90;99.90
19437;DHT22;9854;50.968;4.168;2024-03-23T06:15:21;7.80;99.90
19437;DHT22;9854;50.968;4.168;2024-03-23T06:17:48;7.80;99.90
19437;DHT22;9854;50.968;4.168;2024-03-23T06:20:14;7.70;99.90
19437;DHT22;9854;50.968;4.168;2024-03-23T06:22:40;7.90;99.90
19437;DHT22;9854;50.968;4.168;2024-03-23T06:25:06;7.80;99.90
19437;DHT22;9854;50.968;4.168;2024-03-23T06:27:32;7.90;99.90
19437;DHT22;9854;50.968;4.168;2024-03-23T06:30:01;8.00;99.90
19437;DHT22;9854;50.968;4.168;2024-03-23T06:32:28;7.80;99.90
19437;DHT22;9854;50.968;4.168;2024-03-23T06:34:54;7.90;99.90
19437;DHT22;9854;50.968;4.168;2024-03-23T06:37:20;8.00;99.90
19437;DHT22;9854;50.968;4.168;2024-03-23T06:39:46;8.00;99.90
19437;DHT22;9854;50.968;4.168;2024-03-23T06:42:12;7.90;99.90
19437;DHT22;9854;50.968;4.168;2024-03-23T06:44:38;7.90;99.90
19437;DHT22;9854;50.968;4.168;2024-03-23T06:47:11;7.90;99.90
19437;DHT22;9854;50.968;4.168;2024-03-23T06:49:39;7.70;99.90
19437;DHT22;9854;50.968;4.168;2024-03-23T06:52:09;7.60;99.90
19437;DHT22;9854;50.968;4.168;2024-03-23T06:54:35;7.40;99.90
19437;DHT22;9854;50.968;4.168;2024-03-23T06:57:01;7.40;99.90
19437;DHT22;9854;50.968;4.168;2024-03-23T06:59:29;7.40;99.90
19437;DHT22;9854;50.968;4.168;2024-03-23T07:01:56;7.50;99.90
19437;DHT22;9854;50.968;4.168;2024-03-23T07:04:22;7.50;99.90
19437;DHT22;9854;50.968;4.168;2024-03-23T07:06:48;7.50;99.90
19437;DHT22;9854;50.968;4.168;2024-03-23T07:09:13;7.40;99.90
19437;DHT22;9854;50.968;4.168;2024-03-23T07:11:39;7.40;99.90
19437;DHT22;9854;50.968;4.168;2024-03-23T07:14:05;7.30;99.90
19437;DHT22;9854;50.968;4.168;2024-03-23T07:16:33;7.40;99.90
19437;DHT22;9854;50.968;4.168;2024-03-23T07:19:01;7.50;99.90
19437;DHT22;9854;50.968;4.168;2024-03-23T07:21:26;7.60;99.90
19437;DHT22;9854;50.968;4.168;2024-03-23T07:23:52;7.70;99.90
19437;DHT22;9854;50.968;4.168;2024-03-23T07:26:18;7.50;99.90
19437;DHT22;9854;50.968;4.168;2024-03-23T07:28:44;7.30;99.90
19437;DHT22;9854;50.968;4.168;2024-03-23T07:31:12;7.40;99.90
19437;DHT22;9854;50.968;4.168;2024-03-23T07:33:46;7.50;99.90
19437;DHT22;9854;50.968;4.168;2024-03-23T07:36:12;7.50;99.90
19437;DHT22;9854;50.968;4.168;2024-03-23T07:38:41;7.60;99.90
19437;DHT22;9854;50.968;4.168;2024-03-23T07:41:13;7.80;99.90
19437;DHT22;9854;50.968;4.168;2024-03-23T07:43:40;7.70;99.90
19437;DHT22;9854;50.968;4.168;2024-03-23T07:46:06;7.60;99.90
19437;DHT22;9854;50.968;4.168;2024-03-23T07:48:32;7.50;99.90
19437;DHT22;9854;50.968;4.168;2024-03-23T07:53:24;7.70;99.90
19437;DHT22;9854;50.968;4.168;2024-03-23T07:55:57;7.80;99.90
19437;DHT22;9854;50.968;4.168;2024-03-23T07:58:23;7.90;99.90
19437;DHT22;9854;50.968;4.168;2024-03-23T08:00:49;8.00;99.90
19437;DHT22;9854;50.968;4.168;2024-03-23T08:03:15;8.00;99.90
19437;DHT22;9854;50.968;4.168;2024-03-23T08:05:43;8.00;99.90
19437;DHT22;9854;50.968;4.168;2024-03-23T08:08:08;8.20;99.90
19437;DHT22;9854;50.968;4.168;2024-03-23T08:10:34;8.30;99.90
19437;DHT22;9854;50.968;4.168;2024-03-23T08:13:02;8.40;99.90
19437;DHT22;9854;50.968;4.168;2024-03-23T08:15:31;8.50;99.90
19437;DHT22;9854;50.968;4.168;2024-03-23T08:17:59;8.40;99.90
19437;DHT22;9854;50.968;4.168;2024-03-23T08:20:25;8.20;99.90
19437;DHT22;9854;50.968;4.168;2024-03-23T08:22:50;8.10;99.90
19437;DHT22;9854;50.968;4.168;2024-03-23T08:25:16;7.90;99.90
19437;DHT22;9854;50.968;4.168;2024-03-23T08:27:44;7.80;99.90
19437;DHT22;9854;50.968;4.168;2024-03-23T08:30:10;7.90;99.90
19437;DHT22;9854;50.968;4.168;2024-03-23T08:32:36;7.80;99.90
19437;DHT22;9854;50.968;4.168;2024-03-23T08:35:02;7.80;99.90
19437;DHT22;9854;50.968;4.168;2024-03-23T08:37:30;8.00;99.90
19437;DHT22;9854;50.968;4.168;2024-03-23T08:39:58;8.10;99.90
19437;DHT22;9854;50.968;4.168;2024-03-23T08:42:24;8.20;99.90
19437;DHT22;9854;50.968;4.168;2024-03-23T08:44:52;8.30;99.90
19437;DHT22;9854;50.968;4.168;2024-03-23T08:47:17;8.20;99.90
19437;DHT22;9854;50.968;4.168;2024-03-23T08:49:44;8.20;99.90
19437;DHT22;9854;50.968;4.168;2024-03-23T08:52:12;8.30;99.90
19437;DHT22;9854;50.968;4.168;2024-03-23T08:54:38;8.50;99.90
19437;DHT22;9854;50.968;4.168;2024-03-23T08:57:04;8.70;99.90
19437;DHT22;9854;50.968;4.168;2024-03-23T08:59:29;8.70;99.90
19437;DHT22;9854;50.968;4.168;2024-03-23T09:01:55;8.60;99.90
19437;DHT22;9854;50.968;4.168;2024-03-23T09:04:21;8.70;99.90
19437;DHT22;9854;50.968;4.168;2024-03-23T09:06:47;8.60;99.90
19437;DHT22;9854;50.968;4.168;2024-03-23T09:09:12;8.70;99.90
19437;DHT22;9854;50.968;4.168;2024-03-23T09:11:38;8.90;99.90
19437;DHT22;9854;50.968;4.168;2024-03-23T09:14:04;9.20;99.90
19437;DHT22;9854;50.968;4.168;2024-03-23T09:16:29;9.10;99.90
19437;DHT22;9854;50.968;4.168;2024-03-23T09:18:55;8.90;99.90
19437;DHT22;9854;50.968;4.168;2024-03-23T09:21:22;8.80;99.90
19437;DHT22;9854;50.968;4.168;2024-03-23T09:23:49;8.90;99.90
19437;DHT22;9854;50.968;4.168;2024-03-23T09:26:17;9.10;99.90
19437;DHT22;9854;50.968;4.168;2024-03-23T09:28:43;9.20;99.90
19437;DHT22;9854;50.968;4.168;2024-03-23T09:31:09;9.20;99.90
19437;DHT22;9854;50.968;4.168;2024-03-23T09:33:41;9.20;99.90
19437;DHT22;9854;50.968;4.168;2024-03-23T09:36:09;9.30;99.90
19437;DHT22;9854;50.968;4.168;2024-03-23T09:38:35;9.30;99.90
19437;DHT22;9854;50.968;4.168;2024-03-23T09:41:07;9.20;99.90
19437;DHT22;9854;50.968;4.168;2024-03-23T09:43:36;9.20;99.90
19437;DHT22;9854;50.968;4.168;2024-03-23T09:46:04;9.30;99.90
19437;DHT22;9854;50.968;4.168;2024-03-23T09:48:31;9.30;99.90
19437;DHT22;9854;50.968;4.168;2024-03-23T09:50:57;9.00;99.90
19437;DHT22;9854;50.968;4.168;2024-03-23T09:53:22;9.00;99.90
19437;DHT22;9854;50.968;4.168;2024-03-23T09:55:48;8.80;99.90
19437;DHT22;9854;50.968;4.168;2024-03-23T09:58:15;8.70;99.90
19437;DHT22;9854;50.968;4.168;2024-03-23T10:00:42;9.00;99.90
19437;DHT22;9854;50.968;4.168;2024-03-23T10:03:08;9.20;99.90
19437;DHT22;9854;50.968;4.168;2024-03-23T10:05:35;9.20;99.90
19437;DHT22;9854;50.968;4.168;2024-03-23T10:08:17;9.30;99.90
19437;DHT22;9854;50.968;4.168;2024-03-23T10:10:45;9.30;99.90
19437;DHT22;9854;50.968;4.168;2024-03-23T10:13:14;9.60;99.90
19437;DHT22;9854;50.968;4.168;2024-03-23T10:15:57;9.80;99.90
19437;DHT22;9854;50.968;4.168;2024-03-23T10:18:26;9.80;99.90
19437;DHT22;9854;50.968;4.168;2024-03-23T10:23:35;8.90;99.90
19437;DHT22;9854;50.968;4.168;2024-03-23T10:31:29;8.40;99.90
19437;DHT22;9854;50.968;4.168;2024-03-23T10:33:58;8.20;99.90
19437;DHT22;9854;50.968;4.168;2024-03-23T10:36:24;8.20;99.90
19437;DHT22;9854;50.968;4.168;2024-03-23T10:38:54;8.30;99.90
19437;DHT22;9854;50.968;4.168;2024-03-23T10:41:20;8.20;99.90
19437;DHT22;9854;50.968;4.168;2024-03-23T10:43:48;8.00;99.90
19437;DHT22;9854;50.968;4.168;2024-03-23T10:46:14;7.40;99.90
19437;DHT22;9854;50.968;4.168;2024-03-23T10:48:43;6.60;99.90
19437;DHT22;9854;50.968;4.168;2024-03-23T10:51:10;6.20;99.90
19437;DHT22;9854;50.968;4.168;2024-03-23T10:53:36;6.20;99.90
19437;DHT22;9854;50.968;4.168;2024-03-23T10:56:08;6.40;99.90
19437;DHT22;9854;50.968;4.168;2024-03-23T10:58:51;6.60;99.90
19437;DHT22;9854;50.968;4.168;2024-03-23T11:01:18;6.90;99.90
19437;DHT22;9854;50.968;4.168;2024-03-23T11:03:48;7.50;99.90
19437;DHT22;9854;50.968;4.168;2024-03-23T11:06:43;7.80;99.90
19437;DHT22;9854;50.968;4.168;2024-03-23T11:09:38;8.10;99.90
19437;DHT22;9854;50.968;4.168;2024-03-23T11:12:26;7.90;99.90
19437;DHT22;9854;50.968;4.168;2024-03-23T11:14:52;7.70;99.90
19437;DHT22;9854;50.968;4.168;2024-03-23T11:17:20;7.50;99.90
19437;DHT22;9854;50.968;4.168;2024-03-23T11:20:04;7.60;99.90
19437;DHT22;9854;50.968;4.168;2024-03-23T11:25:24;8.30;99.90
19437;DHT22;9854;50.968;4.168;2024-03-23T11:27:54;8.60;99.90
19437;DHT22;9854;50.968;4.168;2024-03-23T11:30:21;8.70;99.90
19437;DHT22;9854;50.968;4.168;2024-03-23T11:32:59;8.50;99.90
19437;DHT22;9854;50.968;4.168;2024-03-23T11:38:14;8.10;99.90
19437;DHT22;9854;50.968;4.168;2024-03-23T11:40:44;8.20;99.90
19437;DHT22;9854;50.968;4.168;2024-03-23T11:43:18;8.40;99.90
19437;DHT22;9854;50.968;4.168;2024-03-23T11:45:48;8.60;99.90
19437;DHT22;9854;50.968;4.168;2024-03-23T11:48:20;8.80;99.90
19437;DHT22;9854;50.968;4.168;2024-03-23T11:50:51;9.00;99.90
19437;DHT22;9854;50.968;4.168;2024-03-23T11:55:48;9.40;99.90
19437;DHT22;9854;50.968;4.168;2024-03-23T11:58:14;9.20;99.90
19437;DHT22;9854;50.968;4.168;2024-03-23T12:00:40;9.10;99.90
19437;DHT22;9854;50.968;4.168;2024-03-23T12:03:06;9.20;99.90
19437;DHT22;9854;50.968;4.168;2024-03-23T12:05:33;9.30;99.90
19437;DHT22;9854;50.968;4.168;2024-03-23T12:08:33;9.60;99.90
19437;DHT22;9854;50.968;4.168;2024-03-23T12:11:11;9.90;99.90
19437;DHT22;9854;50.968;4.168;2024-03-23T12:13:42;10.00;99.90
19437;DHT22;9854;50.968;4.168;2024-03-23T12:16:19;10.00;99.90
19437;DHT22;9854;50.968;4.168;2024-03-23T12:18:47;9.90;99.90
19437;DHT22;9854;50.968;4.168;2024-03-23T12:21:13;9.90;99.90
19437;DHT22;9854;50.968;4.168;2024-03-23T12:23:39;9.90;99.90
19437;DHT22;9854;50.968;4.168;2024-03-23T12:26:05;10.10;99.90
19437;DHT22;9854;50.968;4.168;2024-03-23T12:28:32;10.20;99.90
19437;DHT22;9854;50.968;4.168;2024-03-23T12:31:00;10.20;99.90
19437;DHT22;9854;50.968;4.168;2024-03-23T12:33:28;10.30;99.90
19437;DHT22;9854;50.968;4.168;2024-03-23T12:35:53;10.30;99.90
19437;DHT22;9854;50.968;4.168;2024-03-23T12:38:19;10.00;99.90
19437;DHT22;9854;50.968;4.168;2024-03-23T12:40:49;9.90;99.90
19437;DHT22;9854;50.968;4.168;2024-03-23T12:43:15;9.90;99.90
19437;DHT22;9854;50.968;4.168;2024-03-23T12:45:46;10.00;99.90
19437;DHT22;9854;50.968;4.168;2024-03-23T12:48:12;9.90;99.90
19437;DHT22;9854;50.968;4.168;2024-03-23T12:50:41;9.80;99.90
19437;DHT22;9854;50.968;4.168;2024-03-23T12:53:06;9.60;99.90
19437;DHT22;9854;50.968;4.168;2024-03-23T12:55:34;9.30;99.90
19437;DHT22;9854;50.968;4.168;2024-03-23T12:58:00;9.20;99.90
19437;DHT22;9854;50.968;4.168;2024-03-23T13:00:28;8.60;99.90
19437;DHT22;9854;50.968;4.168;2024-03-23T13:02:56;8.20;99.90
19437;DHT22;9854;50.968;4.168;2024-03-23T13:05:21;8.20;99.90
19437;DHT22;9854;50.968;4.168;2024-03-23T13:07:47;8.20;99.90
19437;DHT22;9854;50.968;4.168;2024-03-23T13:10:13;8.40;99.90
19437;DHT22;9854;50.968;4.168;2024-03-23T13:12:39;8.90;99.90
19437;DHT22;9854;50.968;4.168;2024-03-23T13:15:05;9.20;99.90
19437;DHT22;9854;50.968;4.168;2024-03-23T13:17:31;9.40;99.90
19437;DHT22;9854;50.968;4.168;2024-03-23T13:19:57;9.50;99.90
19437;DHT22;9854;50.968;4.168;2024-03-23T13:22:22;9.40;99.90
19437;DHT22;9854;50.968;4.168;2024-03-23T13:24:48;9.20;99.90
19437;DHT22;9854;50.968;4.168;2024-03-23T13:27:16;9.10;99.90
19437;DHT22;9854;50.968;4.168;2024-03-23T13:29:42;9.00;99.90
19437;DHT22;9854;50.968;4.168;2024-03-23T13:32:07;8.90;99.90
19437;DHT22;9854;50.968;4.168;2024-03-23T13:34:34;8.80;99.90
19437;DHT22;9854;50.968;4.168;2024-03-23T13:37:00;8.70;99.90
19437;DHT22;9854;50.968;4.168;2024-03-23T13:39:26;8.70;99.90
19437;DHT22;9854;50.968;4.168;2024-03-23T13:41:54;8.60;99.90
19437;DHT22;9854;50.968;4.168;2024-03-23T13:44:23;8.70;99.90
19437;DHT22;9854;50.968;4.168;2024-03-23T13:46:52;8.80;99.90
19437;DHT22;9854;50.968;4.168;2024-03-23T13:49:30;8.80;99.90
19437;DHT22;9854;50.968;4.168;2024-03-23T13:52:01;9.10;99.90
19437;DHT22;9854;50.968;4.168;2024-03-23T13:54:27;9.50;99.90
19437;DHT22;9854;50.968;4.168;2024-03-23T13:56:56;10.00;99.90
19437;DHT22;9854;50.968;4.168;2024-03-23T13:59:22;10.30;99.90
19437;DHT22;9854;50.968;4.168;2024-03-23T14:01:48;10.50;99.90
19437;DHT22;9854;50.968;4.168;2024-03-23T14:04:17;10.40;99.90
19437;DHT22;9854;50.968;4.168;2024-03-23T14:06:45;10.50;99.90
19437;DHT22;9854;50.968;4.168;2024-03-23T14:09:12;10.70;99.90
19437;DHT22;9854;50.968;4.168;2024-03-23T14:11:37;10.80;99.90
19437;DHT22;9854;50.968;4.168;2024-03-23T14:14:06;11.10;99.90
19437;DHT22;9854;50.968;4.168;2024-03-23T14:16:33;11.30;99.90
19437;DHT22;9854;50.968;4.168;2024-03-23T14:19:01;10.90;99.90
19437;DHT22;9854;50.968;4.168;2024-03-23T14:21:26;10.60;99.90
19437;DHT22;9854;50.968;4.168;2024-03-23T14:23:55;10.40;99.90
19437;DHT22;9854;50.968;4.168;2024-03-23T14:26:20;10.60;99.90
19437;DHT22;9854;50.968;4.168;2024-03-23T14:28:46;10.80;99.90
19437;DHT22;9854;50.968;4.168;2024-03-23T14:31:12;10.90;99.90
19437;DHT22;9854;50.968;4.168;2024-03-23T14:33:41;11.10;99.90
19437;DHT22;9854;50.968;4.168;2024-03-23T14:36:12;11.10;99.90
19437;DHT22;9854;50.968;4.168;2024-03-23T14:38:37;11.20;99.90
19437;DHT22;9854;50.968;4.168;2024-03-23T14:41:08;11.40;99.90
19437;DHT22;9854;50.968;4.168;2024-03-23T14:43:33;11.50;99.90
19437;DHT22;9854;50.968;4.168;2024-03-23T14:46:13;11.90;99.90
19437;DHT22;9854;50.968;4.168;2024-03-23T14:48:40;12.00;99.90
19437;DHT22;9854;50.968;4.168;2024-03-23T14:51:07;11.80;99.90
19437;DHT22;9854;50.968;4.168;2024-03-23T14:53:38;11.90;99.90
19437;DHT22;9854;50.968;4.168;2024-03-23T14:56:06;12.20;99.90
19437;DHT22;9854;50.968;4.168;2024-03-23T14:58:33;12.00;99.90
19437;DHT22;9854;50.968;4.168;2024-03-23T15:01:08;12.20;99.90
19437;DHT22;9854;50.968;4.168;2024-03-23T15:03:37;12.50;99.90
19437;DHT22;9854;50.968;4.168;2024-03-23T15:06:04;12.60;99.90
19437;DHT22;9854;50.968;4.168;2024-03-23T15:08:30;12.70;99.90
19437;DHT22;9854;50.968;4.168;2024-03-23T15:10:59;12.30;99.90
19437;DHT22;9854;50.968;4.168;2024-03-23T15:13:26;12.00;99.90
19437;DHT22;9854;50.968;4.168;2024-03-23T15:15:53;11.50;99.90
19437;DHT22;9854;50.968;4.168;2024-03-23T15:18:19;11.50;99.90
19437;DHT22;9854;50.968;4.168;2024-03-23T15:21:00;11.40;99.90
19437;DHT22;9854;50.968;4.168;2024-03-23T15:23:34;11.20;99.90
19437;DHT22;9854;50.968;4.168;2024-03-23T15:26:01;11.30;99.90
19437;DHT22;9854;50.968;4.168;2024-03-23T15:28:31;11.70;99.90
19437;DHT22;9854;50.968;4.168;2024-03-23T15:31:10;12.00;99.90
19437;DHT22;9854;50.968;4.168;2024-03-23T15:33:36;12.10;99.90
19437;DHT22;9854;50.968;4.168;2024-03-23T15:36:05;12.00;99.90
19437;DHT22;9854;50.968;4.168;2024-03-23T15:38:33;11.70;99.90
19437;DHT22;9854;50.968;4.168;2024-03-23T15:40:59;11.30;99.90
19437;DHT22;9854;50.968;4.168;2024-03-23T15:43:27;11.10;99.90
19437;DHT22;9854;50.968;4.168;2024-03-23T15:45:58;11.00;99.90
19437;DHT22;9854;50.968;4.168;2024-03-23T15:48:27;10.80;99.90
19437;DHT22;9854;50.968;4.168;2024-03-23T15:50:57;10.80;99.90
19437;DHT22;9854;50.968;4.168;2024-03-23T15:53:26;10.60;99.90
19437;DHT22;9854;50.968;4.168;2024-03-23T15:58:22;10.60;99.90
19437;DHT22;9854;50.968;4.168;2024-03-23T16:03:26;10.50;99.90
19437;DHT22;9854;50.968;4.168;2024-03-23T16:05:57;10.50;99.90
19437;DHT22;9854;50.968;4.168;2024-03-23T16:08:24;10.40;99.90
19437;DHT22;9854;50.968;4.168;2024-03-23T16:10:53;10.40;99.90
19437;DHT22;9854;50.968;4.168;2024-03-23T16:13:20;10.40;99.90
19437;DHT22;9854;50.968;4.168;2024-03-23T16:15:54;10.30;99.90
19437;DHT22;9854;50.968;4.168;2024-03-23T16:18:20;10.30;99.90
19437;DHT22;9854;50.968;4.168;2024-03-23T16:20:59;10.40;99.90
19437;DHT22;9854;50.968;4.168;2024-03-23T16:23:28;10.30;99.90
19437;DHT22;9854;50.968;4.168;2024-03-23T16:25:55;10.30;99.90
19437;DHT22;9854;50.968;4.168;2024-03-23T16:28:39;10.30;99.90
19437;DHT22;9854;50.968;4.168;2024-03-23T16:31:07;10.40;99.90
19437;DHT22;9854;50.968;4.168;2024-03-23T16:33:37;10.40;99.90
19437;DHT22;9854;50.968;4.168;2024-03-23T16:36:07;10.30;99.90
19437;DHT22;9854;50.968;4.168;2024-03-23T16:38:40;10.20;99.90
19437;DHT22;9854;50.968;4.168;2024-03-23T16:41:08;10.20;99.90
19437;DHT22;9854;50.968;4.168;2024-03-23T16:43:35;10.00;99.90
19437;DHT22;9854;50.968;4.168;2024-03-23T16:46:03;9.60;99.90
19437;DHT22;9854;50.968;4.168;2024-03-23T16:48:34;9.20;99.90
19437;DHT22;9854;50.968;4.168;2024-03-23T16:51:01;9.00;99.90
19437;DHT22;9854;50.968;4.168;2024-03-23T16:53:28;8.90;99.90
19437;DHT22;9854;50.968;4.168;2024-03-23T16:56:03;8.80;99.90
19437;DHT22;9854;50.968;4.168;2024-03-23T16:58:34;8.70;99.90
19437;DHT22;9854;50.968;4.168;2024-03-23T17:01:04;8.70;99.90
19437;DHT22;9854;50.968;4.168;2024-03-23T17:03:32;8.60;99.90
19437;DHT22;9854;50.968;4.168;2024-03-23T17:05:58;8.60;99.90
19437;DHT22;9854;50.968;4.168;2024-03-23T17:08:23;8.60;99.90
19437;DHT22;9854;50.968;4.168;2024-03-23T17:10:57;8.50;99.90
19437;DHT22;9854;50.968;4.168;2024-03-23T17:13:24;8.30;99.90
19437;DHT22;9854;50.968;4.168;2024-03-23T17:15:49;8.20;99.90
19437;DHT22;9854;50.968;4.168;2024-03-23T17:18:17;7.90;99.90
19437;DHT22;9854;50.968;4.168;2024-03-23T17:20:46;7.70;99.90